sensor_id;sensor_type;location;lat;lon;timestamp;pressure;altitude;pressure_sealevel;temperature;humidity
12763;BME280;6445;52.490;13.378;2023-06-22T00:00:56;27160.25;;;-146.10;100.00
12763;BME280;6445;52.490;13.378;2023-06-22T00:03:23;26955.50;;;-146.10;100.00
12763;BME280;6445;52.490;13.378;2023-06-22T00:05:50;26406.94;;;-146.10;100.00
12763;BME280;6445;52.490;13.378;2023-06-22T00:08:16;26581.84;;;-146.10;100.00
12763;BME280;6445;52.490;13.378;2023-06-22T00:10:42;29363.47;;;-146.10;100.00
12763;BME280;6445;52.490;13.378;2023-06-22T00:13:08;28687.28;;;-146.10;100.00
12763;BME280;6445;52.490;13.378;2023-06-22T00:15:34;29102.91;;;-146.10;100.00
12763;BME280;6445;52.490;13.378;2023-06-22T00:17:59;28798.63;;;-146.10;100.00
12763;BME280;6445;52.490;13.378;2023-06-22T00:20:25;28894.09;;;-146.10;100.00
12763;BME280;6445;52.490;13.378;2023-06-22T00:22:54;28343.25;;;-146.10;100.00
12763;BME280;6445;52.490;13.378;2023-06-22T00:25:20;28414.84;;;-146.10;100.00
12763;BME280;6445;52.490;13.378;2023-06-22T00:27:45;26514.25;;;-146.10;100.00
12763;BME280;6445;52.490;13.378;2023-06-22T00:30:11;26937.63;;;-146.10;100.00
12763;BME280;6445;52.490;13.378;2023-06-22T00:32:36;24562.94;;;-146.10;100.00
12763;BME280;6445;52.490;13.378;2023-06-22T00:35:01;22604.69;;;-146.10;100.00
12763;BME280;6445;52.490;13.378;2023-06-22T00:37:27;21540.56;;;-146.10;100.00
12763;BME280;6445;52.490;13.378;2023-06-22T00:39:55;17673.63;;;-146.10;100.00
12763;BME280;6445;52.490;13.378;2023-06-22T00:42:20;16123.19;;;-146.10;100.00
12763;BME280;6445;52.490;13.378;2023-06-22T00:44:45;17138.25;;;-146.10;100.00
12763;BME280;6445;52.490;13.378;2023-06-22T00:47:11;15362.06;;;-146.10;100.00
12763;BME280;6445;52.490;13.378;2023-06-22T00:49:38;15108.41;;;-146.10;100.00
12763;BME280;6445;52.490;13.378;2023-06-22T00:52:05;14601.09;;;-146.10;100.00
12763;BME280;6445;52.490;13.378;2023-06-22T00:54:34;13840.28;;;-146.10;100.00
12763;BME280;6445;52.490;13.378;2023-06-22T00:57:01;13840.28;;;-146.10;100.00
12763;BME280;6445;52.490;13.378;2023-06-22T00:59:26;12826.09;;;-146.10;100.00
12763;BME280;6445;52.490;13.378;2023-06-22T01:01:52;11558.72;;;-146.10;100.00
12763;BME280;6445;52.490;13.378;2023-06-22T01:04:17;9785.09;;;-146.10;100.00
12763;BME280;6445;52.490;13.378;2023-06-22T01:06:54;8518.72;;;-146.10;100.00
12763;BME280;6445;52.490;13.378;2023-06-22T01:09:32;7759.09;;;-146.10;100.00
12763;BME280;6445;52.490;13.378;2023-06-22T01:12:02;7505.91;;;-146.10;100.00
12763;BME280;6445;52.490;13.378;2023-06-22T01:14:37;6493.38;;;-146.10;100.00
12763;BME280;6445;52.490;13.378;2023-06-22T01:17:05;5481.09;;;-146.10;100.00
12763;BME280;6445;52.490;13.378;2023-06-22T01:19:50;5481.09;;;-146.10;100.00
12763;BME280;6445;52.490;13.378;2023-06-22T01:22:22;5228.06;;;-146.10;100.00
12763;BME280;6445;52.490;13.378;2023-06-22T01:30:11;3710.25;;;-146.10;100.00
12763;BME280;6445;52.490;13.378;2023-06-22T01:32:39;2951.56;;;-146.10;100.00
12763;BME280;6445;52.490;13.378;2023-06-22T01:35:07;2951.56;;;-146.10;100.00
12763;BME280;6445;52.490;13.378;2023-06-22T01:37:34;929.16;;;-146.10;100.00
12763;BME280;6445;52.490;13.378;2023-06-22T01:40:02;171.00;;;-146.10;100.00
12763;BME280;6445;52.490;13.378;2023-06-22T01:42:29;-81.66;;;-146.10;100.00
12763;BME280;6445;52.490;13.378;2023-06-22T01:44:55;171.00;;;-146.10;100.00
12763;BME280;6445;52.490;13.378;2023-06-22T01:47:22;-839.59;;;-146.10;100.00
12763;BME280;6445;52.490;13.378;2023-06-22T01:49:47;-1092.22;;;-146.10;100.00
12763;BME280;6445;52.490;13.378;2023-06-22T01:52:13;-1344.81;;;-146.10;100.00
12763;BME280;6445;52.490;13.378;2023-06-22T01:54:39;-1597.41;;;-146.10;100.00
12763;BME280;6445;52.490;13.378;2023-06-22T01:57:05;-1597.41;;;-146.10;100.00
12763;BME280;6445;52.490;13.378;2023-06-22T01:59:57;-586.97;;;-146.10;100.00
12763;BME280;6445;52.490;13.378;2023-06-22T02:02:24;-334.34;;;-146.10;100.00
12763;BME280;6445;52.490;13.378;2023-06-22T02:05:01;-1092.22;;;-146.10;100.00
12763;BME280;6445;52.490;13.378;2023-06-22T02:07:32;-1092.22;;;-146.10;100.00
12763;BME280;6445;52.490;13.378;2023-06-22T02:09:59;-1092.22;;;-146.10;100.00
12763;BME280;6445;52.490;13.378;2023-06-22T02:12:27;-1849.97;;;-146.10;100.00
12763;BME280;6445;52.490;13.378;2023-06-22T02:14:53;-2102.50;;;-146.10;100.00
12763;BME280;6445;52.490;13.378;2023-06-22T02:17:19;-3112.53;;;-146.10;100.00
12763;BME280;6445;52.490;13.378;2023-06-22T02:19:45;-4122.28;;;-146.10;100.00
12763;BME280;6445;52.490;13.378;2023-06-22T02:22:10;-4909.00;;;-146.10;100.00
12763;BME280;6445;52.490;13.378;2023-06-22T02:24:35;-4851.81;;;-146.10;100.00
12763;BME280;6445;52.490;13.378;2023-06-22T02:27:01;-5009.53;;;-146.10;100.00
12763;BME280;6445;52.490;13.378;2023-06-22T02:29:27;-4569.88;;;-146.10;100.00
12763;BME280;6445;52.490;13.378;2023-06-22T02:31:53;-4642.81;;;-146.10;100.00
12763;BME280;6445;52.490;13.378;2023-06-22T02:34:19;-4080.88;;;-146.10;100.00
12763;BME280;6445;52.490;13.378;2023-06-22T02:36:45;-4500.88;;;-146.10;100.00
12763;BME280;6445;52.490;13.378;2023-06-22T02:39:18;-1917.03;;;-146.10;100.00
12763;BME280;6445;52.490;13.378;2023-06-22T02:41:43;-2049.22;;;-146.10;100.00
12763;BME280;6445;52.490;13.378;2023-06-22T02:44:08;-2074.88;;;-146.10;100.00
12763;BME280;6445;52.490;13.378;2023-06-22T02:46:35;-1788.78;;;-146.10;100.00
12763;BME280;6445;52.490;13.378;2023-06-22T02:49:00;20.97;;;-146.10;100.00
12763;BME280;6445;52.490;13.378;2023-06-22T02:51:26;-440.91;;;-146.10;100.00
12763;BME280;6445;52.490;13.378;2023-06-22T02:53:51;253.94;;;-146.10;100.00
12763;BME280;6445;52.490;13.378;2023-06-22T02:56:17;-813.94;;;-146.10;100.00
12763;BME280;6445;52.490;13.378;2023-06-22T02:58:42;-1632.91;;;-146.10;100.00
12763;BME280;6445;52.490;13.378;2023-06-22T03:01:08;-2735.78;;;-146.10;100.00
12763;BME280;6445;52.490;13.378;2023-06-22T03:03:35;-3292.00;;;-146.10;100.00
12763;BME280;6445;52.490;13.378;2023-06-22T03:06:00;-4349.03;;;-146.10;100.00
12763;BME280;6445;52.490;13.378;2023-06-22T03:08:28;-3804.78;;;-146.10;100.00
12763;BME280;6445;52.490;13.378;2023-06-22T03:10:54;-4729.59;;;-146.10;100.00
12763;BME280;6445;52.490;13.378;2023-06-22T03:13:19;-3927.06;;;-146.10;100.00
12763;BME280;6445;52.490;13.378;2023-06-22T03:15:44;-4207.06;;;-146.10;100.00
12763;BME280;6445;52.490;13.378;2023-06-22T03:18:10;-4636.91;;;-146.10;100.00
12763;BME280;6445;52.490;13.378;2023-06-22T03:20:36;-3114.50;;;-146.10;100.00
12763;BME280;6445;52.490;13.378;2023-06-22T03:23:01;-2078.81;;;-146.10;100.00
12763;BME280;6445;52.490;13.378;2023-06-22T03:25:26;-979.72;;;-146.10;100.00
12763;BME280;6445;52.490;13.378;2023-06-22T03:27:51;-519.88;;;-146.10;100.00
12763;BME280;6445;52.490;13.378;2023-06-22T03:30:17;-622.50;;;-146.10;100.00
12763;BME280;6445;52.490;13.378;2023-06-22T03:32:42;-3153.94;;;-146.10;100.00
12763;BME280;6445;52.490;13.378;2023-06-22T03:35:08;-3666.75;;;-146.10;100.00
12763;BME280;6445;52.490;13.378;2023-06-22T03:37:34;-4351.00;;;-146.10;100.00
12763;BME280;6445;52.490;13.378;2023-06-22T03:39:59;-4504.81;;;-146.10;100.00
12763;BME280;6445;52.490;13.378;2023-06-22T03:42:24;-4577.75;;;-146.10;100.00
12763;BME280;6445;52.490;13.378;2023-06-22T03:44:49;-4122.28;;;-146.10;100.00
12763;BME280;6445;52.490;13.378;2023-06-22T03:47:15;-4374.69;;;-146.10;100.00
12763;BME280;6445;52.490;13.378;2023-06-22T03:49:40;-4266.22;;;-146.10;100.00
12763;BME280;6445;52.490;13.378;2023-06-22T03:52:05;-4136.09;;;-146.10;100.00
12763;BME280;6445;52.490;13.378;2023-06-22T03:54:31;-3615.47;;;-146.10;100.00
12763;BME280;6445;52.490;13.378;2023-06-22T03:56:57;-4045.38;;;-146.10;100.00
12763;BME280;6445;52.490;13.378;2023-06-22T03:59:22;-3617.44;;;-146.10;100.00
12763;BME280;6445;52.490;13.378;2023-06-22T04:01:48;-3112.53;;;-146.10;100.00
12763;BME280;6445;52.490;13.378;2023-06-22T04:04:13;-2355.03;;;-146.10;100.00
12763;BME280;6445;52.490;13.378;2023-06-22T04:06:39;-839.59;;;-146.10;100.00
12763;BME280;6445;52.490;13.378;2023-06-22T04:09:06;-1092.22;;;-146.10;100.00
12763;BME280;6445;52.490;13.378;2023-06-22T04:11:31;-1344.81;;;-146.10;100.00
12763;BME280;6445;52.490;13.378;2023-06-22T04:13:57;-586.97;;;-146.10;100.00
12763;BME280;6445;52.490;13.378;2023-06-22T04:16:22;1940.22;;;-146.10;100.00
12763;BME280;6445;52.490;13.378;2023-06-22T04:18:47;2193.03;;;-146.10;100.00
12763;BME280;6445;52.490;13.378;2023-06-22T04:21:13;5987.19;;;-146.10;100.00
12763;BME280;6445;52.490;13.378;2023-06-22T04:23:38;11305.28;;;-146.10;100.00
12763;BME280;6445;52.490;13.378;2023-06-22T04:26:04;19060.03;;;-146.10;100.00
12763;BME280;6445;52.490;13.378;2023-06-22T04:28:29;22028.91;;;-146.10;100.00
12763;BME280;6445;52.490;13.378;2023-06-22T04:30:55;22038.81;;;-146.10;100.00
12763;BME280;6445;52.490;13.378;2023-06-22T04:33:23;25697.44;;;-146.10;100.00
12763;BME280;6445;52.490;13.378;2023-06-22T04:35:48;20071.91;;;-146.10;100.00
12763;BME280;6445;52.490;13.378;2023-06-22T04:38:13;20760.50;;;-146.10;100.00
12763;BME280;6445;52.490;13.378;2023-06-22T04:40:39;21798.63;;;-146.10;100.00
12763;BME280;6445;52.490;13.378;2023-06-22T04:43:05;19942.94;;;-146.10;100.00
12763;BME280;6445;52.490;13.378;2023-06-22T04:45:32;21357.94;;;-146.10;100.00
12763;BME280;6445;52.490;13.378;2023-06-22T04:47:57;24560.97;;;-146.10;100.00
12763;BME280;6445;52.490;13.378;2023-06-22T04:50:23;29454.97;;;-146.10;100.00
12763;BME280;6445;52.490;13.378;2023-06-22T04:52:48;32280.47;;;-146.10;100.00
12763;BME280;6445;52.490;13.378;2023-06-22T04:55:14;36331.22;;;-146.10;100.00
12763;BME280;6445;52.490;13.378;2023-06-22T04:57:46;42988.03;;;-146.10;100.00
12763;BME280;6445;52.490;13.378;2023-06-22T05:00:18;41483.38;;;-146.10;100.00
12763;BME280;6445;52.490;13.378;2023-06-22T05:02:45;42247.59;;;-146.10;100.00
12763;BME280;6445;52.490;13.378;2023-06-22T05:05:12;44259.63;;;-146.10;100.00
12763;BME280;6445;52.490;13.378;2023-06-22T05:07:43;46472.47;;;-146.10;99.03
12763;BME280;6445;52.490;13.378;2023-06-22T05:10:12;48160.88;;;-146.10;96.58
12763;BME280;6445;52.490;13.378;2023-06-22T05:12:38;49094.31;;;-146.10;94.38
12763;BME280;6445;52.490;13.378;2023-06-22T05:15:04;49592.09;;;-146.10;93.13
12763;BME280;6445;52.490;13.378;2023-06-22T05:17:29;50469.88;;;-146.10;90.25
12763;BME280;6445;52.490;13.378;2023-06-22T05:19:54;50847.84;;;-146.10;88.64
12763;BME280;6445;52.490;13.378;2023-06-22T05:22:20;50993.84;;;-146.10;88.25
12763;BME280;6445;52.490;13.378;2023-06-22T05:24:46;50963.84;;;-146.10;88.17
12763;BME280;6445;52.490;13.378;2023-06-22T05:27:12;51065.84;;;-146.10;88.12
12763;BME280;6445;52.490;13.378;2023-06-22T05:29:37;51631.91;;;-146.10;84.52
12763;BME280;6445;52.490;13.378;2023-06-22T05:32:03;51585.88;;;-146.10;85.06
12763;BME280;6445;52.490;13.378;2023-06-22T05:34:28;52037.97;;;-146.10;81.57
12763;BME280;6445;52.490;13.378;2023-06-22T05:36:54;51901.94;;;-146.10;82.75
12763;BME280;6445;52.490;13.378;2023-06-22T05:39:19;51739.91;;;-146.10;84.39
12763;BME280;6445;52.490;13.378;2023-06-22T05:41:45;51795.91;;;-146.10;83.97
12763;BME280;6445;52.490;13.378;2023-06-22T05:44:10;52041.97;;;-146.10;81.96
12763;BME280;6445;52.490;13.378;2023-06-22T05:46:35;51747.91;;;-146.10;84.58
12763;BME280;6445;52.490;13.378;2023-06-22T05:49:01;51687.91;;;-146.10;85.06
12763;BME280;6445;52.490;13.378;2023-06-22T05:51:26;51985.97;;;-146.10;82.75
12763;BME280;6445;52.490;13.378;2023-06-22T05:53:51;52538.13;;;-146.10;74.64
12763;BME280;6445;52.490;13.378;2023-06-22T05:56:17;52416.09;;;-146.10;77.30
12763;BME280;6445;52.490;13.378;2023-06-22T05:58:42;52356.06;;;-146.10;77.85
12763;BME280;6445;52.490;13.378;2023-06-22T06:01:07;52210.03;;;-146.10;81.19
12763;BME280;6445;52.490;13.378;2023-06-22T06:03:32;52232.03;;;-146.10;80.74
12763;BME280;6445;52.490;13.378;2023-06-22T06:05:58;52546.13;;;-146.10;75.11
12763;BME280;6445;52.490;13.378;2023-06-22T06:08:23;52748.22;;;-146.10;66.89
12763;BME280;6445;52.490;13.378;2023-06-22T06:10:48;52838.25;;;-146.10;60.83
12763;BME280;6445;52.490;13.378;2023-06-22T06:13:13;52836.25;;;-146.10;58.87
12763;BME280;6445;52.490;13.378;2023-06-22T06:15:39;52794.25;;;-146.10;60.33
12763;BME280;6445;52.490;13.378;2023-06-22T06:18:04;52770.22;;;-146.10;60.56
12763;BME280;6445;52.490;13.378;2023-06-22T06:20:30;52826.25;;;-146.10;58.99
12763;BME280;6445;52.490;13.378;2023-06-22T06:22:56;52870.28;;;-146.10;57.51
12763;BME280;6445;52.490;13.378;2023-06-22T06:25:22;52904.28;;;-146.10;53.72
12763;BME280;6445;52.490;13.378;2023-06-22T06:27:49;52914.31;;;-146.10;52.70
12763;BME280;6445;52.490;13.378;2023-06-22T06:30:16;52912.31;;;-146.10;53.30
12763;BME280;6445;52.490;13.378;2023-06-22T06:32:42;53134.41;;;-146.10;46.22
12763;BME280;6445;52.490;13.378;2023-06-22T06:35:10;53098.38;;;-146.10;45.22
12763;BME280;6445;52.490;13.378;2023-06-22T06:37:40;53036.34;;;-146.10;45.08
12763;BME280;6445;52.490;13.378;2023-06-22T06:40:07;52910.28;;;-146.10;49.44
12763;BME280;6445;52.490;13.378;2023-06-22T06:42:35;52944.31;;;-146.10;48.73
12763;BME280;6445;52.490;13.378;2023-06-22T06:45:02;53074.38;;;-146.10;45.51
12763;BME280;6445;52.490;13.378;2023-06-22T06:47:28;52948.31;;;-146.10;47.97
12763;BME280;6445;52.490;13.378;2023-06-22T06:49:53;52892.28;;;-146.10;51.09
12763;BME280;6445;52.490;13.378;2023-06-22T06:52:18;52924.31;;;-146.10;49.19
12763;BME280;6445;52.490;13.378;2023-06-22T06:54:44;53072.38;;;-146.10;45.74
12763;BME280;6445;52.490;13.378;2023-06-22T06:57:09;53192.44;;;-146.10;41.29
12763;BME280;6445;52.490;13.378;2023-06-22T06:59:36;53100.41;;;-146.10;42.86
12763;BME280;6445;52.490;13.378;2023-06-22T07:02:01;53178.44;;;-146.10;42.50
12763;BME280;6445;52.490;13.378;2023-06-22T07:04:26;53118.41;;;-146.10;42.05
12763;BME280;6445;52.490;13.378;2023-06-22T07:06:52;53126.41;;;-146.10;40.76
12763;BME280;6445;52.490;13.378;2023-06-22T07:09:17;53192.44;;;-146.10;38.36
12763;BME280;6445;52.490;13.378;2023-06-22T07:11:43;53256.47;;;-146.10;37.57
12763;BME280;6445;52.490;13.378;2023-06-22T07:14:08;53244.47;;;-146.10;36.15
12763;BME280;6445;52.490;13.378;2023-06-22T07:16:34;53264.47;;;-146.10;35.74
12763;BME280;6445;52.490;13.378;2023-06-22T07:18:59;53394.56;;;-146.10;34.56
12763;BME280;6445;52.490;13.378;2023-06-22T07:21:25;53370.53;;;-146.10;34.46
12763;BME280;6445;52.490;13.378;2023-06-22T07:23:50;53310.50;;;-146.10;34.25
12763;BME280;6445;52.490;13.378;2023-06-22T07:26:15;53374.53;;;-146.10;34.12
12763;BME280;6445;52.490;13.378;2023-06-22T07:28:41;53418.56;;;-146.10;33.43
12763;BME280;6445;52.490;13.378;2023-06-22T07:31:07;53510.63;;;-146.10;33.16
12763;BME280;6445;52.490;13.378;2023-06-22T07:33:32;53374.53;;;-146.10;33.07
12763;BME280;6445;52.490;13.378;2023-06-22T07:35:57;53268.47;;;-146.10;32.97
12763;BME280;6445;52.490;13.378;2023-06-22T07:38:22;53368.53;;;-146.10;33.39
12763;BME280;6445;52.490;13.378;2023-06-22T07:40:48;53496.63;;;-146.10;31.72
12763;BME280;6445;52.490;13.378;2023-06-22T07:43:13;53366.53;;;-146.10;31.98
12763;BME280;6445;52.490;13.378;2023-06-22T07:45:38;53220.47;;;-146.10;32.92
12763;BME280;6445;52.490;13.378;2023-06-22T07:48:06;53268.47;;;-146.10;33.08
12763;BME280;6445;52.490;13.378;2023-06-22T07:50:31;53230.47;;;-146.10;33.69
12763;BME280;6445;52.490;13.378;2023-06-22T07:52:56;53216.47;;;-146.10;33.73
12763;BME280;6445;52.490;13.378;2023-06-22T07:55:21;53350.53;;;-146.10;32.72
12763;BME280;6445;52.490;13.378;2023-06-22T07:57:48;53196.44;;;-146.10;33.07
12763;BME280;6445;52.490;13.378;2023-06-22T08:00:14;53048.38;;;-146.10;33.94
12763;BME280;6445;52.490;13.378;2023-06-22T08:02:41;52936.31;;;-146.10;35.47
12763;BME280;6445;52.490;13.378;2023-06-22T08:05:08;52898.28;;;-146.10;37.04
12763;BME280;6445;52.490;13.378;2023-06-22T08:07:38;52832.25;;;-146.10;39.59
12763;BME280;6445;52.490;13.378;2023-06-22T08:10:04;52850.28;;;-146.10;40.21
12763;BME280;6445;52.490;13.378;2023-06-22T08:12:30;52786.25;;;-146.10;41.37
12763;BME280;6445;52.490;13.378;2023-06-22T08:14:55;52808.25;;;-146.10;39.52
12763;BME280;6445;52.490;13.378;2023-06-22T08:17:22;52778.25;;;-146.10;39.78
12763;BME280;6445;52.490;13.378;2023-06-22T08:19:47;52796.25;;;-146.10;39.15
12763;BME280;6445;52.490;13.378;2023-06-22T08:22:13;52780.25;;;-146.10;38.82
12763;BME280;6445;52.490;13.378;2023-06-22T08:24:38;52836.25;;;-146.10;38.98
12763;BME280;6445;52.490;13.378;2023-06-22T08:27:07;52776.22;;;-146.10;40.36
12763;BME280;6445;52.490;13.378;2023-06-22T08:29:33;52760.22;;;-146.10;43.82
12763;BME280;6445;52.490;13.378;2023-06-22T08:31:59;52758.22;;;-146.10;42.10
12763;BME280;6445;52.490;13.378;2023-06-22T08:34:24;52786.25;;;-146.10;41.47
12763;BME280;6445;52.490;13.378;2023-06-22T08:36:52;52788.25;;;-146.10;42.94
12763;BME280;6445;52.490;13.378;2023-06-22T08:39:21;52772.22;;;-146.10;41.91
12763;BME280;6445;52.490;13.378;2023-06-22T08:41:47;52872.28;;;-146.10;41.53
12763;BME280;6445;52.490;13.378;2023-06-22T08:44:13;52906.28;;;-146.10;40.21
12763;BME280;6445;52.490;13.378;2023-06-22T08:46:38;52892.28;;;-146.10;39.31
12763;BME280;6445;52.490;13.378;2023-06-22T08:49:05;52880.28;;;-146.10;40.59
12763;BME280;6445;52.490;13.378;2023-06-22T08:51:31;52848.28;;;-146.10;42.35
12763;BME280;6445;52.490;13.378;2023-06-22T08:53:56;52894.28;;;-146.10;42.20
12763;BME280;6445;52.490;13.378;2023-06-22T08:56:21;52910.28;;;-146.10;41.01
12763;BME280;6445;52.490;13.378;2023-06-22T08:58:46;53000.34;;;-146.10;38.91
12763;BME280;6445;52.490;13.378;2023-06-22T09:01:12;53058.38;;;-146.10;37.41
12763;BME280;6445;52.490;13.378;2023-06-22T09:03:37;53126.41;;;-146.10;35.82
12763;BME280;6445;52.490;13.378;2023-06-22T09:06:03;53098.38;;;-146.10;36.22
12763;BME280;6445;52.490;13.378;2023-06-22T09:08:28;53132.41;;;-146.10;35.34
12763;BME280;6445;52.490;13.378;2023-06-22T09:10:53;53100.41;;;-146.10;35.40
12763;BME280;6445;52.490;13.378;2023-06-22T09:13:18;53062.38;;;-146.10;35.40
12763;BME280;6445;52.490;13.378;2023-06-22T09:15:44;53044.38;;;-146.10;34.30
12763;BME280;6445;52.490;13.378;2023-06-22T09:18:13;53108.41;;;-146.10;33.73
12763;BME280;6445;52.490;13.378;2023-06-22T09:20:38;53002.34;;;-146.10;34.52
12763;BME280;6445;52.490;13.378;2023-06-22T09:23:03;53094.38;;;-146.10;33.77
12763;BME280;6445;52.490;13.378;2023-06-22T09:25:29;53156.41;;;-146.10;33.33
12763;BME280;6445;52.490;13.378;2023-06-22T09:27:54;53176.44;;;-146.10;32.94
12763;BME280;6445;52.490;13.378;2023-06-22T09:30:19;53078.38;;;-146.10;34.35
12763;BME280;6445;52.490;13.378;2023-06-22T09:32:45;53088.38;;;-146.10;33.65
12763;BME280;6445;52.490;13.378;2023-06-22T09:35:10;53064.38;;;-146.10;34.06
12763;BME280;6445;52.490;13.378;2023-06-22T09:37:37;52980.34;;;-146.10;34.18
12763;BME280;6445;52.490;13.378;2023-06-22T09:40:03;52958.31;;;-146.10;34.60
12763;BME280;6445;52.490;13.378;2023-06-22T09:42:33;53052.38;;;-146.10;34.69
12763;BME280;6445;52.490;13.378;2023-06-22T09:44:59;53010.34;;;-146.10;34.30
12763;BME280;6445;52.490;13.378;2023-06-22T09:47:24;53106.41;;;-146.10;34.10
12763;BME280;6445;52.490;13.378;2023-06-22T09:49:50;53046.38;;;-146.10;33.86
12763;BME280;6445;52.490;13.378;2023-06-22T09:52:15;53000.34;;;-146.10;34.52
12763;BME280;6445;52.490;13.378;2023-06-22T09:54:41;52982.34;;;-146.10;34.44
12763;BME280;6445;52.490;13.378;2023-06-22T09:57:06;52992.34;;;-146.10;35.13
12763;BME280;6445;52.490;13.378;2023-06-22T09:59:31;53034.34;;;-146.10;34.47
12763;BME280;6445;52.490;13.378;2023-06-22T10:01:56;53022.34;;;-146.10;35.21
12763;BME280;6445;52.490;13.378;2023-06-22T10:04:22;53038.34;;;-146.10;35.03
12763;BME280;6445;52.490;13.378;2023-06-22T10:06:47;53086.38;;;-146.10;34.34
12763;BME280;6445;52.490;13.378;2023-06-22T10:09:12;53178.44;;;-146.10;33.79
12763;BME280;6445;52.490;13.378;2023-06-22T10:11:38;53256.47;;;-146.10;32.64
12763;BME280;6445;52.490;13.378;2023-06-22T10:14:03;53198.44;;;-146.10;33.03
12763;BME280;6445;52.490;13.378;2023-06-22T10:16:32;53198.44;;;-146.10;33.14
12763;BME280;6445;52.490;13.378;2023-06-22T10:18:58;53172.44;;;-146.10;33.28
12763;BME280;6445;52.490;13.378;2023-06-22T10:21:23;53184.44;;;-146.10;33.66
12763;BME280;6445;52.490;13.378;2023-06-22T10:23:48;53192.44;;;-146.10;33.25
12763;BME280;6445;52.490;13.378;2023-06-22T10:26:14;53240.47;;;-146.10;33.18
12763;BME280;6445;52.490;13.378;2023-06-22T10:28:39;53228.47;;;-146.10;32.96
12763;BME280;6445;52.490;13.378;2023-06-22T10:31:04;53164.44;;;-146.10;32.98
12763;BME280;6445;52.490;13.378;2023-06-22T10:33:29;53166.44;;;-146.10;33.79
12763;BME280;6445;52.490;13.378;2023-06-22T10:35:55;53114.41;;;-146.10;34.03
12763;BME280;6445;52.490;13.378;2023-06-22T10:38:20;53100.41;;;-146.10;33.52
12763;BME280;6445;52.490;13.378;2023-06-22T10:40:46;53160.44;;;-146.10;32.90
12763;BME280;6445;52.490;13.378;2023-06-22T10:43:11;53234.47;;;-146.10;33.09
12763;BME280;6445;52.490;13.378;2023-06-22T10:45:36;53236.47;;;-146.10;32.09
12763;BME280;6445;52.490;13.378;2023-06-22T10:48:01;53292.50;;;-146.10;31.72
12763;BME280;6445;52.490;13.378;2023-06-22T10:50:27;53216.47;;;-146.10;32.06
12763;BME280;6445;52.490;13.378;2023-06-22T10:52:53;53196.44;;;-146.10;32.41
12763;BME280;6445;52.490;13.378;2023-06-22T10:55:19;53182.44;;;-146.10;32.65
12763;BME280;6445;52.490;13.378;2023-06-22T10:57:44;53244.47;;;-146.10;31.96
12763;BME280;6445;52.490;13.378;2023-06-22T11:00:13;53106.41;;;-146.10;33.10
12763;BME280;6445;52.490;13.378;2023-06-22T11:02:38;53040.38;;;-146.10;34.12
12763;BME280;6445;52.490;13.378;2023-06-22T11:05:04;52960.31;;;-146.10;34.33
12763;BME280;6445;52.490;13.378;2023-06-22T11:07:29;53048.38;;;-146.10;33.90
12763;BME280;6445;52.490;13.378;2023-06-22T11:09:55;53046.38;;;-146.10;34.17
12763;BME280;6445;52.490;13.378;2023-06-22T11:12:20;53094.38;;;-146.10;33.58
12763;BME280;6445;52.490;13.378;2023-06-22T11:14:46;53110.41;;;-146.10;33.41
12763;BME280;6445;52.490;13.378;2023-06-22T11:17:11;53168.44;;;-146.10;32.86
12763;BME280;6445;52.490;13.378;2023-06-22T11:19:36;53184.44;;;-146.10;32.64
12763;BME280;6445;52.490;13.378;2023-06-22T11:22:02;53136.41;;;-146.10;32.32
12763;BME280;6445;52.490;13.378;2023-06-22T11:24:27;53146.41;;;-146.10;32.72
12763;BME280;6445;52.490;13.378;2023-06-22T11:26:52;53094.38;;;-146.10;33.04
12763;BME280;6445;52.490;13.378;2023-06-22T11:29:17;53172.44;;;-146.10;32.20
12763;BME280;6445;52.490;13.378;2023-06-22T11:31:43;53130.41;;;-146.10;33.59
12763;BME280;6445;52.490;13.378;2023-06-22T11:34:08;53158.44;;;-146.10;33.33
12763;BME280;6445;52.490;13.378;2023-06-22T11:36:33;53136.41;;;-146.10;32.81
12763;BME280;6445;52.490;13.378;2023-06-22T11:39:00;53162.44;;;-146.10;32.86
12763;BME280;6445;52.490;13.378;2023-06-22T11:41:26;53166.44;;;-146.10;32.84
12763;BME280;6445;52.490;13.378;2023-06-22T11:43:51;53086.38;;;-146.10;32.54
12763;BME280;6445;52.490;13.378;2023-06-22T11:46:16;53160.44;;;-146.10;32.84
12763;BME280;6445;52.490;13.378;2023-06-22T11:48:41;53142.41;;;-146.10;32.73
12763;BME280;6445;52.490;13.378;2023-06-22T11:51:07;53104.41;;;-146.10;32.45
12763;BME280;6445;52.490;13.378;2023-06-22T11:53:33;53138.41;;;-146.10;32.73
12763;BME280;6445;52.490;13.378;2023-06-22T11:55:59;53130.41;;;-146.10;32.86
12763;BME280;6445;52.490;13.378;2023-06-22T11:58:25;53128.41;;;-146.10;32.72
12763;BME280;6445;52.490;13.378;2023-06-22T12:00:50;53156.41;;;-146.10;32.59
12763;BME280;6445;52.490;13.378;2023-06-22T12:03:16;53186.44;;;-146.10;32.30
12763;BME280;6445;52.490;13.378;2023-06-22T12:05:42;53150.41;;;-146.10;32.56
12763;BME280;6445;52.490;13.378;2023-06-22T12:08:07;53138.41;;;-146.10;33.07
12763;BME280;6445;52.490;13.378;2023-06-22T12:10:33;53198.44;;;-146.10;31.54
12763;BME280;6445;52.490;13.378;2023-06-22T12:12:58;53172.44;;;-146.10;32.27
12763;BME280;6445;52.490;13.378;2023-06-22T12:15:25;53156.41;;;-146.10;32.24
12763;BME280;6445;52.490;13.378;2023-06-22T12:17:50;53112.41;;;-146.10;32.86
12763;BME280;6445;52.490;13.378;2023-06-22T12:20:15;53128.41;;;-146.10;32.83
12763;BME280;6445;52.490;13.378;2023-06-22T12:22:41;53172.44;;;-146.10;33.22
12763;BME280;6445;52.490;13.378;2023-06-22T12:25:07;53174.44;;;-146.10;32.33
12763;BME280;6445;52.490;13.378;2023-06-22T12:27:32;53112.41;;;-146.10;32.84
12763;BME280;6445;52.490;13.378;2023-06-22T12:29:58;53190.44;;;-146.10;32.24
12763;BME280;6445;52.490;13.378;2023-06-22T12:32:23;53262.47;;;-146.10;32.07
12763;BME280;6445;52.490;13.378;2023-06-22T12:34:49;53162.44;;;-146.10;32.53
12763;BME280;6445;52.490;13.378;2023-06-22T12:37:14;53148.41;;;-146.10;32.15